• Join FlightAware (Why Join?)
  • Login
  • US Flag 
05:07AM EDT


 

Airport Tracker/Info


-or-


 

Live Flight TrackerFlight Track Log ✈ LXJ444 ✈ 11-May-2013 ✈ KIAD - KPBI

Flight Track Log - Related Links

Times and Time Zones

All times are in EDT time to prevent confusion due to time zone crossing. See the LXJ444 flight status page for this flight to view local times or setup timezone preferences in your user account.

Time Position Orientation Groundspeed Altitude Reporting Facility
EDT Latitude Longitude Course Direction KTS MPH feet Rate Location/Type
06:40PM 38.9333 -77.5167 198° South 202 232 3,000  Level Potomac TRACON
06:42PM 38.7950 -77.5733 198° South 243 280 9,900 3,300 Climbing Washington Center
06:43PM 38.7158 -77.5686 177° South 269 310 13,600 2,580 Climbing Washington Center
06:44PM 38.6325 -77.5556 173° South 295 339 15,100 2,520 Climbing Washington Center
06:45PM 38.5283 -77.5608 182° South 334 384 18,800 3,600 Climbing Washington Center
06:46PM 38.4258 -77.5767 187° South 369 425 22,400 3,600 Climbing Washington Center
06:47PM 38.3494 -77.6514 218° Southwest 363 418 26,000 2,640 Climbing Washington Center
06:48PM 38.2794 -77.7208 218° Southwest 348 400 27,700 1,740 Climbing Washington Center
06:49PM 38.2031 -77.8033 220° Southwest 360 414 29,600 1,140 Climbing Washington Center
06:50PM 38.1242 -77.8856 219° Southwest 365 420 30,000 1,260 Climbing Washington Center
06:51PM 38.0517 -77.9650 221° Southwest 365 420 32,200 2,160 Climbing Washington Center
06:52PM 37.9708 -78.0442 218° Southwest 346 398 34,400 1,920 Climbing Washington Center
06:53PM 37.8986 -78.1156 218° Southwest 341 392 36,200 1,620 Climbing Washington Center
06:54PM 37.8300 -78.1947 222° Southwest 335 386 37,600 1,380 Climbing Washington Center
06:55PM 37.7556 -78.2683 218° Southwest 335 386 39,000 1,200 Climbing Washington Center
06:56PM 37.6872 -78.3394 219° Southwest 335 386 40,100 840 Climbing Washington Center
06:57PM 37.6125 -78.4153 219° Southwest 335 386 40,800 600 Climbing Washington Center
06:58PM 37.5439 -78.4861 219° Southwest 340 391 41,400 600 Climbing Washington Center
06:59PM 37.4692 -78.5617 219° Southwest 345 397 42,100 720 Climbing Washington Center
07:00PM 37.3919 -78.6425 220° Southwest 357 411 42,900 420 Climbing Washington Center
07:01PM 37.3128 -78.7175 217° Southwest 357 411 43,000  Climbing Washington Center
07:02PM 37.2228 -78.8078 219° Southwest 362 417 43,000  Level Washington Center
07:03PM 37.1414 -78.8878 218° Southwest 362 417 43,000  Level Washington Center
07:04PM 37.0619 -78.9678 219° Southwest 367 422 43,000  Level Washington Center
07:05PM 36.9822 -79.0525 220° Southwest 367 422 43,000  Level Washington Center
07:06PM 36.9031 -79.1269 217° Southwest 367 422 43,000  Level Washington Center
07:07PM 36.8361 -79.1967 220° Southwest 361 415 43,000  Level Washington Center
07:08PM 36.7608 -79.2708 218° Southwest 361 415 43,000  Level Washington Center
07:09PM 36.6833 -79.3475 218° Southwest 361 415 43,100 300 Climbing Washington Center
07:10PM 36.6081 -79.4239 219° Southwest 361 415 43,700 540 Climbing Washington Center
07:11PM 36.4567 -79.5681 217° Southwest 365 420 44,700 420 Climbing Atlanta Center
07:12PM 36.3781 -79.6447 218° Southwest 365 420 45,000 120 Climbing Atlanta Center
07:13PM 36.2975 -79.7239 218° Southwest 370 426 45,000  Level Atlanta Center
07:14PM 36.2208 -79.8025 220° Southwest 379 436 45,000  Level Atlanta Center
07:15PM 36.1361 -79.8842 218° Southwest 385 443 45,000  Level Atlanta Center
07:16PM 36.0511 -79.9631 217° Southwest 385 443 45,000  Level Atlanta Center
07:17PM 35.9422 -80.0119 200° South 391 450 45,000  Level Atlanta Center
07:18PM 35.8222 -80.0461 193° South 410 472 45,000  Level Atlanta Center
07:19PM 35.7067 -80.0850 195° South 416 479 45,000  Level Atlanta Center
07:20PM 35.5933 -80.1236 195° South 423 487 45,000  Level Atlanta Center
07:21PM 35.4839 -80.1619 196° South 423 487 45,000  Level Atlanta Center
07:22PM 35.3825 -80.1922 194° South 423 487 45,000  Level Atlanta Center
07:23PM 35.2689 -80.2281 194° South 418 481 45,000  Level Atlanta Center
07:26PM 35.0261 -80.3069 195° South 411 473 45,000  Level Jacksonville Center
07:27PM 34.9164 -80.3458 196° South 411 473 45,000  Level Jacksonville Center
07:28PM 34.8169 -80.3764 194° South 418 481 45,000  Level Jacksonville Center
07:29PM 34.7111 -80.4125 196° South 408 470 45,000  Level Jacksonville Center
07:30PM 34.5881 -80.4108 179° South 421 484 45,000  Level Jacksonville Center
07:31PM 34.4692 -80.4119 180° South 426 490 45,000  Level Jacksonville Center
07:32PM 34.3464 -80.4203 183° South 426 490 45,000  Level Jacksonville Center
07:33PM 34.2211 -80.4164 179° South 438 504 45,000  Level Jacksonville Center
07:34PM 34.0958 -80.4200 181° South 448 516 45,000  Level Jacksonville Center
07:35PM 33.9708 -80.4211 180° South 453 521 45,000  Level Jacksonville Center
07:36PM 33.8436 -80.4247 181° South 458 527 45,000  Level Jacksonville Center
07:37PM 33.7164 -80.4231 179° South 458 527 45,000  Level Jacksonville Center
07:38PM 33.5892 -80.4267 181° South 458 527 45,000  Level Jacksonville Center
07:39PM 33.4639 -80.4278 180° South 458 527 45,000  Level Jacksonville Center
07:40PM 33.3367 -80.4311 181° South 458 527 45,000  Level Jacksonville Center
07:41PM 33.2136 -80.4347 181° South 453 521 45,000  Level Jacksonville Center
07:42PM 33.0842 -80.4406 182° South 453 521 45,000  Level Jacksonville Center
07:43PM 32.9569 -80.4392 179° South 461 531 45,000  Level Jacksonville Center
07:44PM 32.8336 -80.4353 178° South 456 525 45,000  Level Jacksonville Center
07:45PM 32.7106 -80.4386 181° South 451 519 45,000  Level Jacksonville Center
07:46PM 32.5731 -80.4472 183° South 431 496 45,000  Level Jacksonville Center
07:47PM 32.4519 -80.4553 183° South 442 509 45,000  Level Jacksonville Center
07:48PM 32.3289 -80.4611 182° South 443 510 45,000  Level Jacksonville Center
07:49PM 32.2061 -80.4692 183° South 445 512 45,000  Level Jacksonville Center
07:50PM 32.0892 -80.4797 184° South 434 499 45,000  Level Jacksonville Center
07:51PM 31.9786 -80.4850 182° South 440 506 45,000  Level Jacksonville Center
07:52PM 31.8431 -80.4911 182° South 445 512 45,000  Level Jacksonville Center
07:53PM 31.7328 -80.4989 183° South 439 505 45,000  Level Jacksonville Center
07:54PM 31.5972 -80.5072 183° South 439 505 45,000  Level Jacksonville Center
07:55PM 31.4742 -80.5153 183° South 445 512 45,000  Level Jacksonville Center
07:56PM 31.3511 -80.5208 182° South 435 501 45,000  Level Jacksonville Center
07:57PM 31.2258 -80.5289 183° South 440 506 45,000  Level Jacksonville Center
07:58PM 31.1028 -80.5342 182° South 440 506 45,000  Level Jacksonville Center
07:59PM 30.9797 -80.5422 183° South 440 506 45,000  Level Jacksonville Center
08:00PM 30.8567 -80.5525 184° South 445 512 45,000  Level Jacksonville Center
08:01PM 30.7483 -80.5575 182° South 440 506 45,000  Level Jacksonville Center
08:02PM 30.6253 -80.5656 183° South 440 506 45,000  Level Jacksonville Center
08:03PM 30.5017 -80.5467 172° South 440 506 45,000  Level Jacksonville Center
08:04PM 30.3739 -80.5258 172° South 451 519 45,000  Level Jacksonville Center
08:05PM 30.2483 -80.5097 174° South 457 526 45,000  Level Jacksonville Center
08:06PM 30.1250 -80.4911 173° South 457 526 45,000  Level Jacksonville Center
08:07PM 29.9994 -80.4750 174° South 457 526 45,000  Level Jacksonville Center
08:08PM 29.8758 -80.4542 172° South 457 526 45,000  Level Jacksonville Center
08:09PM 29.7522 -80.4381 174° South 457 526 45,000  Level Jacksonville Center
08:10PM 29.6247 -80.4222 174° South 452 520 45,000  Level Jacksonville Center
08:11PM 29.5053 -80.4039 172° South 452 520 45,000 -4,500 Level Jacksonville Center
08:12PM 29.3858 -80.3831 171° South 442 509 36,000 -2,340 Descending Jacksonville Center
08:14PM 29.0056 -80.3331 173° South 456 525 36,000  Level Miami Center
08:15PM 28.8808 -80.3125 172° South 462 532 36,000  Level Miami Center
08:16PM 28.7542 -80.2967 174° South 462 532 36,000 -600 Level Miami Center
08:17PM 28.6397 -80.2814 173° South 462 532 34,900 -1,260 Descending Miami Center
08:18PM 28.5128 -80.2633 173° South 462 532 33,500 -1,380 Descending Miami Center
08:19PM 28.3783 -80.2144 162° South 462 532 32,200 -1,200 Descending Miami Center
08:20PM 28.2583 -80.1636 160° South 462 532 31,100 -1,800 Descending Miami Center
08:21PM 28.1386 -80.1153 160° South 462 532 28,600 -2,760 Descending Miami Center
08:22PM 28.0372 -80.0725 160° South 443 510 25,600 -3,900 Descending Miami Center
08:23PM 27.9194 -80.0197 158° South 418 481 20,900 -3,480 Descending Miami Center
08:24PM 27.8247 -79.9514 147° Southeast 412 474 18,700 -1,380 Descending Miami Center
08:25PM 27.7492 -79.8767 139° Southeast 394 453 18,200 -780 Descending Miami Center
08:26PM 27.6633 -79.8908 188° South 319 367 17,200 -1,560 Descending Miami Center
08:27PM 27.5828 -79.9447 211° Southwest 319 367 15,100 -2,160 Descending Miami Center
08:28PM 27.4958 -80.0106 214° Southwest 346 398 12,900 -1,800 Descending Miami Center
08:29PM 27.4150 -80.0692 213° Southwest 351 404 11,500 -1,380 Descending Miami Center
08:30PM 27.3431 -80.1208 213° Southwest 335 386 10,200 -780 Descending Miami Center
08:31PM 27.2697 -80.1328 188° South 293 337 10,000 -720 Descending Miami Center
08:32PM 27.1992 -80.1075 162° South 280 322 8,800 -1,500 Descending Miami Center
08:33PM 27.1186 -80.0656 155° Southeast 287 330 7,000 -1,620 Descending Miami Center
08:34PM 27.0525 -80.0311 155° Southeast 282 325 5,600 -1,500 Descending Miami Center
08:35PM 26.9825 -79.9964 156° South 272 313 4,100 -840 Descending Miami Center
08:36PM 26.9217 -80.0019 185° South 253 291 4,000 -120 Descending Miami Center
08:38PM 26.8271 -80.0729 222° Southwest  Level FlightAware Approximate
08:45PM 26.6832 -80.0956 110° East  Level Estimated
08:46PM 26.6832 -80.0956 110° East  Level Estimated
08:47PM 26.6832 -80.0956 110° East  Level Estimated
08:48PM 26.6832 -80.0956 110° East  Level Estimated
08:49PM 26.6832 -80.0956 110° East  Level Estimated
08:50PM 26.6832 -80.0956 110° East  Level Estimated
08:51PM 26.6832 -80.0956 110° East  Level Estimated